Time;durP1;ratioP1;P1;durP2;ratioP2;P2;SDS_P1;SDS_P2;PMS_P1;PMS_P2;Temp;Humidity;BMP_temperature;BMP_pressure;BME280_temperature;BME280_humidity;BME280_pressure;Samples;Min_cycle;Max_cycle;Signal;HPM_P1;HPM_P2
2022/12/29 00:01:38;;;;;;;10.10;6.00;;;;;;;6.86;55.53;101705.17;105811;1301;22005;-63
2022/12/29 00:04:04;;;;;;;11.20;6.10;;;;;;;6.83;55.49;101701.97;105821;1306;22011;-61
2022/12/29 00:06:30;;;;;;;11.70;6.60;;;;;;;6.79;55.33;101702.21;105823;1302;21975;-63
2022/12/29 00:08:58;;;;;;;9.70;6.20;;;;;;;6.79;55.30;101704.14;105795;1306;21954;-63
2022/12/29 00:11:26;;;;;;;12.90;6.90;;;;;;;6.74;54.87;101706.11;105783;1306;21961;-61
2022/12/29 00:16:41;;;;;;;9.90;5.80;;;;;;;6.71;55.08;101698.02;105771;1306;21976;-60
2022/12/29 00:35:07;;;;;;;12.20;6.10;;;;;;;6.71;55.38;101696.80;105795;1306;21962;-62
2022/12/29 00:35:43;;;;;;;13.60;7.40;;;;;;;6.87;55.34;101715.30;105085;1303;1002516;-63
2022/12/29 00:46:22;;;;;;;10.40;5.30;;;;;;;6.70;54.83;101713.17;105746;1306;21974;-60
2022/12/29 00:51:32;;;;;;;10.40;5.50;;;;;;;6.59;54.76;101707.85;105762;1306;23097;-63
2022/12/29 00:53:57;;;;;;;8.40;5.20;;;;;;;6.57;55.09;101718.77;105033;1306;1002191;-60
2022/12/29 00:56:23;;;;;;;11.20;5.40;;;;;;;6.54;55.14;101715.92;105774;1306;21974;-63
2022/12/29 00:58:49;;;;;;;11.00;5.70;;;;;;;6.51;55.25;101702.75;105806;1306;22012;-62
2022/12/29 01:01:15;;;;;;;10.90;6.30;;;;;;;6.47;54.96;101699.67;105784;1306;21955;-62
2022/12/29 01:03:42;;;;;;;13.50;6.20;;;;;;;6.40;55.15;101695.34;105855;1306;21969;-61
2022/12/29 01:06:09;;;;;;;13.40;5.70;;;;;;;6.37;55.33;101696.30;105075;1306;1003073;-61
2022/12/29 01:08:35;;;;;;;12.10;6.00;;;;;;;6.36;55.37;101695.23;105114;1306;1002956;-63
2022/12/29 01:11:12;;;;;;;11.90;5.50;;;;;;;6.38;55.40;101693.88;105813;1305;21977;-61
2022/12/29 01:13:42;;;;;;;11.00;5.40;;;;;;;6.37;55.48;101680.42;105794;1306;21964;-60
2022/12/29 01:16:08;;;;;;;8.60;5.60;;;;;;;6.37;55.39;101672.77;105093;1306;1002271;-60
2022/12/29 01:18:34;;;;;;;10.00;5.80;;;;;;;6.40;55.57;101670.04;105053;1306;1003710;-60
2022/12/29 01:21:01;;;;;;;11.10;5.90;;;;;;;6.41;55.78;101665.88;105759;1306;21968;-63
2022/12/29 01:23:27;;;;;;;11.30;6.40;;;;;;;6.42;55.77;101658.41;105815;1305;22013;-60
2022/12/29 01:25:54;;;;;;;13.70;6.70;;;;;;;6.42;55.84;101658.41;105855;1306;22014;-60
2022/12/29 01:28:19;;;;;;;9.80;5.80;;;;;;;6.40;55.93;101659.41;105836;1305;21969;-63
2022/12/29 01:30:45;;;;;;;12.40;6.40;;;;;;;6.39;55.94;101661.15;105737;1306;21968;-60
2022/12/29 01:33:10;;;;;;;11.40;6.00;;;;;;;6.38;55.91;101656.91;105777;1306;23772;-60
2022/12/29 01:35:36;;;;;;;13.30;6.10;;;;;;;6.40;55.83;101648.95;105769;1304;22010;-63
2022/12/29 01:38:02;;;;;;;9.90;5.10;;;;;;;6.45;55.49;101648.53;105801;1306;21966;-62
2022/12/29 01:40:28;;;;;;;13.40;6.40;;;;;;;6.37;55.86;101647.13;105785;1301;21983;-60
2022/12/29 01:42:54;;;;;;;12.10;6.40;;;;;;;6.36;56.00;101641.52;105050;1306;1002595;-59
2022/12/29 01:45:19;;;;;;;11.90;6.80;;;;;;;6.32;55.67;101637.77;105733;1293;22015;-64
2022/12/29 01:48:03;;;;;;;11.60;6.70;;;;;;;6.33;55.84;101634.30;105823;1305;21965;-63
2022/12/29 01:50:41;;;;;;;12.00;6.10;;;;;;;6.33;55.79;101629.42;105737;1306;21972;-63
2022/12/29 01:53:13;;;;;;;12.60;6.50;;;;;;;6.34;56.08;101628.58;105778;1306;22017;-60
2022/12/29 01:55:42;;;;;;;16.90;7.80;;;;;;;6.33;55.83;101630.83;105670;1304;21970;-63
2022/12/29 01:58:08;;;;;;;20.40;10.90;;;;;;;6.28;56.31;101628.08;105841;1306;21967;-62
2022/12/29 02:00:33;;;;;;;19.20;10.70;;;;;;;6.33;55.96;101626.11;105762;1306;21996;-62
2022/12/29 02:02:59;;;;;;;16.80;10.60;;;;;;;6.39;55.84;101622.77;105088;1306;1002748;-60
2022/12/29 02:05:28;;;;;;;15.60;9.30;;;;;;;6.43;55.79;101624.08;105774;1303;21967;-60
2022/12/29 02:07:55;;;;;;;15.50;8.90;;;;;;;6.44;55.78;101627.95;105836;1305;21979;-60
2022/12/29 02:10:24;;;;;;;17.30;8.10;;;;;;;6.47;55.85;101629.25;105846;1306;21974;-63
2022/12/29 02:12:49;;;;;;;14.20;7.50;;;;;;;6.56;55.72;101618.48;105841;1306;23120;-61
2022/12/29 02:15:22;;;;;;;12.00;6.80;;;;;;;6.61;55.66;101613.18;105830;1302;21941;-60
2022/12/29 02:17:59;;;;;;;11.90;5.60;;;;;;;6.66;55.93;101609.10;105850;1298;21966;-62
2022/12/29 02:20:43;;;;;;;11.70;6.00;;;;;;;6.72;55.90;101609.06;105808;1306;22016;-63
2022/12/29 02:23:34;;;;;;;11.80;5.50;;;;;;;6.77;55.93;101613.73;105753;1306;22477;-60
2022/12/29 02:26:09;;;;;;;13.30;6.30;;;;;;;6.83;56.06;101617.35;105812;1306;22021;-60
2022/12/29 02:28:50;;;;;;;11.70;6.50;;;;;;;6.87;55.86;101612.73;105785;1306;21963;-60
2022/12/29 02:31:34;;;;;;;15.70;6.80;;;;;;;6.89;55.93;101613.82;105757;1306;22018;-60
2022/12/29 02:34:18;;;;;;;11.30;6.00;;;;;;;6.93;55.77;101609.54;105743;1302;21961;-62
2022/12/29 02:36:48;;;;;;;9.40;5.40;;;;;;;6.93;55.71;101605.36;105788;1306;21980;-62
2022/12/29 02:39:32;;;;;;;10.70;5.80;;;;;;;6.92;55.74;101607.09;105881;1306;21968;-60
2022/12/29 02:42:24;;;;;;;12.90;6.50;;;;;;;6.89;55.45;101606.50;105832;1306;21977;-63
2022/12/29 02:45:14;;;;;;;12.20;6.70;;;;;;;6.87;55.47;101608.70;105752;1306;21981;-59
2022/12/29 02:48:03;;;;;;;14.10;7.40;;;;;;;6.83;55.59;101608.98;105742;1306;21986;-64
2022/12/29 02:50:42;;;;;;;11.70;6.40;;;;;;;6.80;55.70;101609.79;105763;1306;21975;-63
2022/12/29 02:53:15;;;;;;;14.20;7.00;;;;;;;6.78;55.44;101610.98;105811;1306;21969;-64
2022/12/29 02:55:51;;;;;;;10.70;5.90;;;;;;;6.77;55.47;101603.45;105816;1306;22046;-62
2022/12/29 02:58:21;;;;;;;17.30;6.30;;;;;;;6.78;55.37;101590.19;105809;1306;21977;-61
2022/12/29 03:00:54;;;;;;;11.50;6.20;;;;;;;6.76;55.46;101577.41;105062;1305;1002429;-61
2022/12/29 03:03:51;;;;;;;10.40;5.60;;;;;;;6.72;55.40;101575.23;105793;1306;22023;-61
2022/12/29 03:06:23;;;;;;;13.90;6.80;;;;;;;6.67;55.50;101574.42;105772;1303;21959;-63
2022/12/29 03:09:15;;;;;;;11.10;6.50;;;;;;;6.64;55.65;101568.41;105738;1301;21972;-60
2022/12/29 03:17:51;;;;;;;11.60;6.20;;;;;;;6.63;55.96;101567.71;105714;1306;22000;-63
2022/12/29 03:20:20;;;;;;;10.90;6.20;;;;;;;6.63;56.03;101562.65;105770;1306;21963;-61
2022/12/29 03:22:47;;;;;;;11.70;5.80;;;;;;;6.62;55.61;101565.06;105792;1306;21953;-61
2022/12/29 03:25:20;;;;;;;10.40;5.40;;;;;;;6.59;55.77;101566.76;105738;1306;21973;-61
2022/12/29 03:27:52;;;;;;;11.80;4.80;;;;;;;6.56;55.87;101571.23;104999;1303;1002323;-63
2022/12/29 03:30:18;;;;;;;10.90;5.80;;;;;;;6.59;55.77;101575.10;105729;1306;22076;-61
2022/12/29 03:32:46;;;;;;;11.90;5.50;;;;;;;6.61;55.77;101574.81;105032;1305;1003233;-63
2022/12/29 03:35:15;;;;;;;11.60;5.90;;;;;;;6.62;55.94;101573.27;105890;1306;21956;-61
2022/12/29 03:37:46;;;;;;;11.00;5.60;;;;;;;6.66;55.96;101575.80;105834;1306;22014;-61
2022/12/29 03:40:12;;;;;;;11.40;6.00;;;;;;;6.66;56.04;101575.79;105798;1306;22063;-62
2022/12/29 03:42:38;;;;;;;9.00;5.10;;;;;;;6.68;56.36;101580.20;105720;1305;22093;-59
2022/12/29 03:45:08;;;;;;;10.40;5.50;;;;;;;6.73;56.36;101583.45;105664;1306;21985;-62
2022/12/29 03:47:34;;;;;;;11.20;4.50;;;;;;;6.77;56.31;101582.65;105628;1306;22151;-62
2022/12/29 03:50:00;;;;;;;8.40;4.40;;;;;;;6.79;56.19;101580.81;105715;1305;22006;-60
2022/12/29 03:52:26;;;;;;;10.80;5.50;;;;;;;6.84;56.06;101577.77;105734;1306;22002;-60
2022/12/29 03:54:52;;;;;;;14.00;6.00;;;;;;;6.82;56.07;101578.77;105710;1306;21994;-63
2022/12/29 03:57:17;;;;;;;10.10;5.60;;;;;;;6.80;55.90;101582.92;105728;1306;21976;-62
2022/12/29 03:59:43;;;;;;;12.60;6.20;;;;;;;6.82;56.04;101593.62;105691;1306;21968;-61
2022/12/29 04:02:09;;;;;;;9.40;6.00;;;;;;;6.85;56.16;101597.69;105718;1306;21987;-61
2022/12/29 04:04:35;;;;;;;9.00;5.00;;;;;;;6.87;56.05;101596.84;105714;1306;21983;-63
2022/12/29 04:07:00;;;;;;;9.80;5.40;;;;;;;6.89;56.26;101589.38;105857;1305;21950;-59
2022/12/29 04:09:27;;;;;;;11.50;4.70;;;;;;;6.92;56.33;101585.10;105761;1306;21964;-59
2022/12/29 04:11:53;;;;;;;9.30;5.10;;;;;;;6.91;56.01;101578.29;105771;1306;22031;-63
2022/12/29 04:14:19;;;;;;;9.30;4.90;;;;;;;6.90;55.78;101577.39;105156;1305;1002626;-62
2022/12/29 04:16:44;;;;;;;9.80;5.60;;;;;;;6.86;55.80;101581.66;105802;1306;23893;-59
2022/12/29 04:19:10;;;;;;;10.50;5.10;;;;;;;6.77;55.86;101579.73;105715;1306;21984;-62
2022/12/29 04:21:37;;;;;;;7.70;4.70;;;;;;;6.75;55.94;101577.59;105530;1306;270891;-60
2022/12/29 04:24:06;;;;;;;9.60;5.00;;;;;;;6.75;56.21;101574.96;105715;1306;21960;-63
2022/12/29 04:26:32;;;;;;;9.80;5.10;;;;;;;6.75;56.40;101573.21;105775;1306;23121;-63
2022/12/29 04:28:58;;;;;;;9.70;4.80;;;;;;;6.79;56.52;101571.21;105783;1301;22078;-60
2022/12/29 04:31:24;;;;;;;7.60;3.90;;;;;;;6.83;56.72;101567.63;105720;1306;21970;-61
2022/12/29 04:33:50;;;;;;;8.80;4.30;;;;;;;6.87;56.96;101567.89;105698;1306;21974;-59
2022/12/29 04:36:17;;;;;;;9.00;3.90;;;;;;;6.95;56.78;101565.45;105706;1305;22015;-60
2022/12/29 04:38:42;;;;;;;7.90;3.90;;;;;;;6.93;57.10;101568.38;105782;1306;21966;-62
2022/12/29 04:41:09;;;;;;;9.70;4.10;;;;;;;6.97;57.25;101569.16;105806;1306;21962;-59
2022/12/29 04:43:35;;;;;;;7.80;3.90;;;;;;;7.10;57.09;101570.66;105730;1301;21960;-60
2022/12/29 04:46:01;;;;;;;10.20;4.00;;;;;;;7.17;56.85;101572.71;105798;1306;21961;-63
2022/12/29 04:48:27;;;;;;;6.50;3.50;;;;;;;7.22;56.84;101569.50;105772;1306;21966;-59
2022/12/29 04:50:52;;;;;;;11.10;3.90;;;;;;;7.23;56.96;101563.23;105708;1306;21998;-61
2022/12/29 04:53:18;;;;;;;7.30;4.00;;;;;;;7.24;57.02;101553.48;105719;1306;21966;-63
2022/12/29 04:55:44;;;;;;;7.00;3.70;;;;;;;7.23;57.02;101546.14;105722;1306;21965;-61
2022/12/29 04:58:10;;;;;;;8.50;4.70;;;;;;;7.22;56.82;101539.48;105052;1306;1003256;-60
2022/12/29 05:00:36;;;;;;;7.60;4.20;;;;;;;7.23;56.87;101533.23;105785;1303;21976;-64
2022/12/29 05:03:02;;;;;;;7.10;4.00;;;;;;;7.19;56.99;101531.56;105805;1306;21982;-62
2022/12/29 05:05:27;;;;;;;10.80;4.00;;;;;;;7.17;57.22;101532.23;105737;1306;21985;-61
2022/12/29 05:07:54;;;;;;;7.00;4.20;;;;;;;7.21;57.08;101529.67;105838;1306;21967;-61
2022/12/29 05:10:20;;;;;;;7.60;4.20;;;;;;;7.22;57.24;101531.63;105855;1301;21963;-61
2022/12/29 05:12:45;;;;;;;8.10;4.20;;;;;;;7.22;56.98;101533.89;105844;1306;21981;-64
2022/12/29 05:15:11;;;;;;;7.00;4.10;;;;;;;7.19;56.98;101535.56;105838;1306;21955;-60
2022/12/29 05:18:16;;;;;;;8.80;5.00;;;;;;;7.12;56.89;101535.59;105804;1305;21981;-64
2022/12/29 05:20:41;;;;;;;10.30;5.50;;;;;;;7.14;56.96;101528.67;105756;1306;22036;-62
2022/12/29 05:23:07;;;;;;;10.20;4.40;;;;;;;7.09;57.20;101522.98;105775;1306;21971;-64
2022/12/29 05:25:33;;;;;;;8.90;4.60;;;;;;;7.00;57.45;101524.02;105714;1306;21965;-65
2022/12/29 05:27:58;;;;;;;14.30;7.00;;;;;;;7.03;57.35;101519.73;105751;1306;22082;-60
2022/12/29 05:30:25;;;;;;;13.80;8.10;;;;;;;7.05;57.38;101518.71;105747;1306;21981;-64
2022/12/29 05:32:50;;;;;;;10.20;6.30;;;;;;;7.03;57.47;101521.29;105815;1306;21983;-60
2022/12/29 05:35:17;;;;;;;10.30;7.10;;;;;;;7.01;57.71;101525.25;105750;1306;21976;-64
2022/12/29 05:37:42;;;;;;;9.60;6.30;;;;;;;7.06;57.47;101522.23;105777;1306;22099;-64
2022/12/29 05:40:09;;;;;;;10.30;6.10;;;;;;;7.11;57.46;101522.84;105749;1305;22010;-62
2022/12/29 05:42:35;;;;;;;8.80;4.30;;;;;;;7.08;58.04;101522.79;105749;1306;22840;-60
2022/12/29 05:45:00;;;;;;;7.90;5.00;;;;;;;7.16;57.96;101524.00;105756;1304;21967;-64
2022/12/29 09:55:56;;;;;;;7.10;3.00;;;;;;;12.38;77.48;101426.48;106190;1301;22008;-68
2022/12/29 09:58:35;;;;;;;7.70;2.80;;;;;;;12.99;72.51;101414.09;106185;1303;21966;-61
2022/12/29 10:01:23;;;;;;;5.50;2.60;;;;;;;13.26;71.40;101411.81;106203;1303;21955;-68
2022/12/29 10:03:51;;;;;;;5.40;1.90;;;;;;;13.40;69.19;101405.92;105876;1300;349417;-68
2022/12/29 10:06:23;;;;;;;4.90;2.20;;;;;;;13.52;68.03;101399.48;106344;1300;21971;-68
2022/12/29 10:09:04;;;;;;;4.30;1.90;;;;;;;13.55;66.53;101397.53;106377;1300;21944;-61
2022/12/29 10:11:39;;;;;;;4.90;2.00;;;;;;;13.62;66.05;101399.77;106318;1300;22917;-61
2022/12/29 10:14:16;;;;;;;7.10;2.00;;;;;;;13.60;65.38;101392.73;106346;1300;22162;-61
2022/12/29 10:17:03;;;;;;;5.90;2.80;;;;;;;13.51;64.37;101392.97;106459;1300;22008;-61
2022/12/29 10:19:47;;;;;;;5.80;2.40;;;;;;;13.46;64.31;101386.49;106329;1300;21957;-62
2022/12/29 10:22:35;;;;;;;3.90;1.90;;;;;;;13.60;64.80;101384.63;106320;1300;22262;-62
2022/12/29 10:25:03;;;;;;;9.80;2.20;;;;;;;13.74;63.81;101381.13;106322;1300;21954;-61
2022/12/29 10:27:31;;;;;;;6.50;2.20;;;;;;;13.89;63.91;101371.64;106527;1300;22735;-68
2022/12/29 10:29:57;;;;;;;4.00;1.70;;;;;;;13.91;62.83;101370.90;106440;1300;21954;-68
2022/12/29 10:32:29;;;;;;;3.90;1.70;;;;;;;13.97;62.49;101366.97;106283;1291;21951;-61
2022/12/29 10:35:14;;;;;;;6.90;2.20;;;;;;;13.98;61.85;101363.27;106354;1292;22125;-60
2022/12/29 10:38:04;;;;;;;6.10;2.40;;;;;;;13.93;61.48;101361.17;106333;1299;22703;-68
2022/12/29 10:40:40;;;;;;;5.70;1.80;;;;;;;13.91;61.13;101360.33;106405;1298;21958;-67
2022/12/29 10:43:25;;;;;;;6.70;2.00;;;;;;;14.09;61.65;101355.55;106419;1300;22753;-68
2022/12/29 10:45:53;;;;;;;7.40;2.40;;;;;;;14.24;61.31;101345.31;106327;1291;23636;-60
2022/12/29 10:48:22;;;;;;;6.00;2.40;;;;;;;14.25;60.64;101349.72;106263;1300;22138;-61
2022/12/29 10:50:49;;;;;;;11.20;1.80;;;;;;;14.37;60.38;101346.20;106357;1300;21960;-67
2022/12/29 10:53:19;;;;;;;6.20;2.20;;;;;;;14.50;59.80;101344.27;106353;1299;22091;-68
2022/12/29 10:55:45;;;;;;;7.80;2.10;;;;;;;14.65;60.30;101343.38;106323;1300;21961;-61
2022/12/29 10:58:12;;;;;;;6.90;2.20;;;;;;;14.62;58.99;101340.41;106263;1300;21964;-61
2022/12/29 11:00:38;;;;;;;5.40;2.50;;;;;;;14.55;58.62;101342.63;106455;1301;21960;-61
2022/12/29 11:03:13;;;;;;;6.80;2.40;;;;;;;14.55;59.29;101342.63;106204;1300;21976;-68
2022/12/29 11:06:00;;;;;;;5.00;1.70;;;;;;;14.46;59.08;101346.10;106277;1300;21948;-61
2022/12/29 11:08:35;;;;;;;5.70;2.20;;;;;;;14.47;59.30;101346.44;106347;1299;21946;-68
2022/12/29 11:11:10;;;;;;;5.10;2.00;;;;;;;14.32;58.35;101346.44;106225;1301;21958;-61
2022/12/29 11:13:49;;;;;;;6.10;2.30;;;;;;;14.47;58.31;101344.14;106249;1300;21954;-61
2022/12/29 11:16:27;;;;;;;5.60;1.90;;;;;;;14.71;58.82;101342.44;106260;1300;21943;-62
2022/12/29 11:18:53;;;;;;;6.20;2.30;;;;;;;14.67;57.77;101339.13;106349;1300;21955;-68
2022/12/29 11:21:40;;;;;;;7.90;4.50;;;;;;;14.61;56.21;101335.67;106454;1300;21961;-61
2022/12/29 11:24:18;;;;;;;6.90;3.20;;;;;;;14.74;56.10;101334.64;106389;1300;21966;-67
2022/12/29 11:26:44;;;;;;;3.70;2.30;;;;;;;14.79;56.10;101327.67;106328;1300;21964;-61
2022/12/29 11:29:14;;;;;;;7.20;2.70;;;;;;;14.62;55.03;101327.54;106379;1300;21957;-61
2022/12/29 11:31:44;;;;;;;6.50;3.10;;;;;;;14.56;54.96;101325.83;106288;1300;23149;-68
2022/12/29 11:34:16;;;;;;;;;;;;;;;14.72;55.41;101323.16;106239;1300;21966;-68
2022/12/29 11:36:42;;;;;;;5.50;3.00;;;;;;;14.83;55.96;101322.65;106270;1300;21951;-61
2022/12/29 11:39:23;;;;;;;4.90;2.50;;;;;;;14.90;55.82;101320.61;106241;1299;23635;-61
2022/12/29 11:41:51;;;;;;;4.00;2.20;;;;;;;15.02;55.99;101328.55;106249;1300;21967;-62
2022/12/29 11:44:19;;;;;;;8.20;3.30;;;;;;;15.06;55.79;101326.19;106297;1300;23089;-68
2022/12/29 11:46:46;;;;;;;7.10;2.90;;;;;;;15.07;55.41;101321.58;106233;1303;21956;-68
2022/12/29 11:49:13;;;;;;;5.30;3.00;;;;;;;14.98;54.27;101317.84;105556;1299;1002785;-61
2022/12/29 11:51:43;;;;;;;6.60;2.90;;;;;;;14.83;54.49;101319.13;106149;1300;21965;-62
2022/12/29 11:54:10;;;;;;;5.90;2.50;;;;;;;14.84;55.17;101311.51;106203;1300;21997;-68
2022/12/29 11:56:41;;;;;;;7.00;3.40;;;;;;;14.70;54.69;101308.85;106503;1300;21949;-61
2022/12/29 11:59:34;;;;;;;7.00;3.30;;;;;;;14.73;54.69;101307.96;106462;1300;23094;-61
2022/12/29 12:02:01;;;;;;;7.30;2.90;;;;;;;14.77;54.87;101302.25;106233;1298;22222;-62
2022/12/29 12:04:30;;;;;;;5.40;2.60;;;;;;;14.77;55.01;101299.41;106269;1300;24453;-68
2022/12/29 12:07:07;;;;;;;7.00;3.10;;;;;;;14.86;54.93;101299.11;106322;1300;21958;-61
2022/12/29 12:09:43;;;;;;;5.50;2.70;;;;;;;14.87;54.41;101292.73;106410;1295;21953;-61
2022/12/29 12:12:19;;;;;;;6.30;3.00;;;;;;;14.63;53.37;101293.42;106326;1300;24318;-61
2022/12/29 12:14:54;;;;;;;6.40;3.50;;;;;;;14.68;53.84;101294.77;106207;1300;21944;-61
2022/12/29 12:17:23;;;;;;;6.60;3.30;;;;;;;14.84;53.90;101291.55;106376;1300;23103;-68
2022/12/29 12:20:23;;;;;;;5.60;2.80;;;;;;;14.85;53.85;101287.45;106310;1300;21989;-61
2022/12/29 12:23:12;;;;;;;7.40;2.80;;;;;;;14.79;54.78;101291.63;106276;1300;21990;-61
2022/12/29 12:25:39;;;;;;;10.60;3.90;;;;;;;14.74;53.96;101293.64;106312;1300;21956;-61
2022/12/29 12:28:17;;;;;;;6.30;2.90;;;;;;;14.65;54.04;101295.87;106500;1300;21956;-61
2022/12/29 12:30:48;;;;;;;7.80;3.30;;;;;;;14.63;54.49;101291.65;106296;1296;21955;-68
2022/12/29 12:33:23;;;;;;;4.80;2.70;;;;;;;14.64;54.90;101292.36;106398;1298;21995;-68
2022/12/29 12:36:08;;;;;;;6.20;2.80;;;;;;;14.69;54.84;101302.34;106302;1300;21962;-61
2022/12/29 12:38:44;;;;;;;7.00;3.90;;;;;;;14.71;54.43;101311.71;106407;1300;22127;-61
2022/12/29 12:41:55;;;;;;;8.40;5.10;;;;;;;14.80;55.10;101316.52;106394;1297;21972;-61
2022/12/29 12:44:58;;;;;;;6.20;3.20;;;;;;;14.83;54.67;101312.23;106040;1299;21949;-61
2022/12/29 12:47:34;;;;;;;7.60;3.80;;;;;;;14.84;54.42;101307.61;106606;1301;23686;-61
2022/12/29 12:50:35;;;;;;;6.30;2.30;;;;;;;15.02;53.53;101304.35;106689;1300;21947;-61
2022/12/29 12:53:11;;;;;;;6.90;2.70;;;;;;;15.07;52.76;101308.51;106594;1301;22035;-68
2022/12/29 12:56:10;;;;;;;6.30;3.00;;;;;;;15.08;52.89;101301.60;106642;1300;21995;-61
2022/12/29 12:58:43;;;;;;;6.10;2.40;;;;;;;15.11;52.94;101298.19;106342;1301;21952;-68
2022/12/29 13:01:45;;;;;;;4.40;2.20;;;;;;;15.15;53.53;101292.46;106469;1301;23124;-60
2022/12/29 13:04:51;;;;;;;4.30;2.20;;;;;;;15.16;53.52;101288.02;106514;1301;21944;-63
2022/12/29 13:07:23;;;;;;;6.50;2.80;;;;;;;15.16;53.10;101291.21;106421;1301;23628;-59
2022/12/29 13:10:04;;;;;;;5.70;2.70;;;;;;;14.95;52.83;101290.13;106708;1301;23067;-60
2022/12/29 13:12:40;;;;;;;5.20;2.60;;;;;;;14.76;52.41;101287.77;106492;1301;21951;-68
2022/12/29 13:15:32;;;;;;;3.40;1.80;;;;;;;14.74;52.80;101288.17;106757;1301;23024;-68
2022/12/29 13:18:29;;;;;;;5.50;2.00;;;;;;;14.71;52.87;101281.84;106828;1301;21957;-59
2022/12/29 13:21:07;;;;;;;7.00;3.30;;;;;;;14.62;53.64;101279.98;106921;1299;21956;-67
2022/12/29 13:23:39;;;;;;;3.90;2.10;;;;;;;14.64;53.58;101274.31;106739;1289;23630;-60
2022/12/29 13:26:19;;;;;;;6.60;2.20;;;;;;;14.59;53.47;101268.73;106967;1301;21952;-60
2022/12/29 13:28:49;;;;;;;7.50;3.60;;;;;;;14.57;53.83;101270.71;106641;1300;21968;-61
2022/12/29 13:31:20;;;;;;;5.90;3.30;;;;;;;14.55;53.84;101271.98;106613;1298;22410;-60
2022/12/29 13:33:52;;;;;;;4.00;2.30;;;;;;;14.50;53.91;101271.70;106841;1300;21964;-60
2022/12/29 22:14:32;;;;;;;22.80;15.30;;;;;;;6.50;89.96;101183.57;105540;1301;22013;-58
2022/12/29 22:16:57;;;;;;;21.80;15.60;;;;;;;6.98;83.30;101172.17;105270;1311;21984;-59
2022/12/29 22:19:23;;;;;;;20.20;14.00;;;;;;;7.21;80.62;101166.94;105395;1304;22001;-59
2022/12/29 22:21:49;;;;;;;18.30;13.00;;;;;;;7.37;78.70;101163.65;105422;1308;21965;-59
2022/12/29 22:24:16;;;;;;;17.30;11.90;;;;;;;7.49;77.52;101164.52;105292;1309;318235;-58
2022/12/29 22:26:41;;;;;;;18.70;12.50;;;;;;;7.60;76.75;101167.44;105569;1309;22049;-59
2022/12/29 22:29:07;;;;;;;11.00;8.70;;;;;;;7.68;75.91;101169.83;105609;1309;21966;-59
2022/12/29 22:31:33;;;;;;;10.40;7.40;;;;;;;7.64;75.16;101165.76;105576;1309;22036;-59
2022/12/29 22:34:00;;;;;;;8.90;6.40;;;;;;;7.69;74.32;101165.46;105595;1309;21974;-58
2022/12/29 22:36:26;;;;;;;8.20;6.10;;;;;;;7.71;73.79;101162.86;105635;1305;21961;-58
2022/12/29 22:38:52;;;;;;;8.80;6.00;;;;;;;7.72;73.40;101161.30;105669;1309;21963;-59
2022/12/29 22:41:18;;;;;;;8.10;5.70;;;;;;;7.75;73.28;101157.66;105586;1305;21981;-59
2022/12/29 22:43:43;;;;;;;8.00;5.10;;;;;;;7.77;72.89;101153.84;105601;1309;21981;-59
2022/12/29 22:46:09;;;;;;;9.10;6.40;;;;;;;7.79;72.81;101151.09;105622;1308;22010;-59
2022/12/29 22:48:35;;;;;;;9.00;5.70;;;;;;;7.83;72.41;101150.26;105615;1307;21946;-58
2022/12/29 22:51:01;;;;;;;9.80;5.10;;;;;;;7.88;72.22;101150.83;105618;1300;21954;-59
2022/12/29 22:53:27;;;;;;;9.00;5.90;;;;;;;7.94;72.07;101149.15;105660;1308;21969;-59
2022/12/29 22:56:07;;;;;;;6.80;4.70;;;;;;;8.10;71.50;101151.95;105638;1306;21977;-59
2022/12/29 22:58:33;;;;;;;7.10;4.20;;;;;;;8.19;70.95;101148.52;105729;1309;23075;-58
2022/12/29 23:00:58;;;;;;;8.20;5.00;;;;;;;8.11;70.86;101146.88;105738;1308;24380;-58
2022/12/29 23:03:25;;;;;;;7.20;5.00;;;;;;;8.08;70.55;101145.80;105758;1308;21962;-58
2022/12/29 23:05:55;;;;;;;7.50;4.70;;;;;;;8.07;70.45;101146.14;105675;1305;21990;-57
2022/12/29 23:08:21;;;;;;;8.60;5.50;;;;;;;8.12;70.44;101146.38;105832;1307;21959;-59
2022/12/29 23:10:47;;;;;;;8.90;5.20;;;;;;;8.16;70.11;101148.68;105767;1302;22218;-59
2022/12/29 23:13:13;;;;;;;7.60;4.90;;;;;;;8.18;69.99;101150.79;105732;1307;22052;-58
2022/12/29 23:15:39;;;;;;;7.40;4.80;;;;;;;8.19;69.62;101145.20;105746;1309;22149;-58
2022/12/29 23:18:05;;;;;;;8.00;4.50;;;;;;;8.18;69.30;101140.11;105604;1309;21957;-59
2022/12/29 23:20:31;;;;;;;7.30;4.70;;;;;;;8.15;69.14;101139.40;105625;1301;21964;-58
2022/12/29 23:22:56;;;;;;;8.40;5.00;;;;;;;8.12;69.15;101137.80;105600;1298;21965;-59
2022/12/29 23:25:22;;;;;;;8.90;5.50;;;;;;;8.12;69.24;101137.97;105594;1298;21957;-58
2022/12/29 23:27:48;;;;;;;15.00;8.80;;;;;;;8.12;69.13;101136.58;105619;1308;21973;-59
2022/12/29 23:30:13;;;;;;;31.30;17.00;;;;;;;8.11;68.93;101137.10;105594;1308;21954;-59
2022/12/29 23:32:39;;;;;;;27.30;16.00;;;;;;;8.13;68.85;101137.48;105585;1309;21944;-61
2022/12/29 23:35:05;;;;;;;49.00;31.60;;;;;;;8.13;68.88;101133.62;105621;1309;21959;-58
2022/12/29 23:37:32;;;;;;;32.10;19.90;;;;;;;8.17;68.85;101139.41;105737;1308;22007;-59
2022/12/29 23:39:57;;;;;;;19.30;11.00;;;;;;;8.21;68.76;101144.35;105777;1309;21957;-58
2022/12/29 23:42:23;;;;;;;12.50;7.70;;;;;;;8.22;68.63;101148.21;105702;1309;21957;-59
2022/12/29 23:44:48;;;;;;;10.20;5.90;;;;;;;8.21;68.58;101146.63;105651;1308;21966;-59
2022/12/29 23:47:14;;;;;;;15.10;9.30;;;;;;;8.18;68.24;101145.37;105644;1309;21975;-58
2022/12/29 23:49:40;;;;;;;17.20;10.50;;;;;;;8.14;67.92;101145.52;105658;1309;21972;-58
2022/12/29 23:52:06;;;;;;;9.90;5.80;;;;;;;8.08;67.79;101143.70;105630;1310;21977;-58
2022/12/29 23:54:32;;;;;;;6.40;4.50;;;;;;;8.03;67.57;101144.17;105620;1309;21960;-59
2022/12/29 23:56:58;;;;;;;7.30;4.70;;;;;;;7.95;67.30;101148.46;105647;1310;21974;-58
2022/12/29 23:59:24;;;;;;;6.40;3.70;;;;;;;7.85;67.05;101150.10;105621;1310;21973;-58
